Taquarana, Brazil
Current Conditions -  °F | °C
As of 5:00 AM on Sunday 21 Dec 2014 (Local Time) from SBMO Reporting Station
Scattered Clouds Scattered Clouds  
Wind Chill: 73°   Ceiling: Unl
Heat Index: 73°   Visibility: 5mi
Dew Point: 72°   Wind: 3mph
Humidity: 94%   Direction: 50°NE
Pressure: 29.94"   Gusts: NA
Location:  9.65°S, 36.5°W
Report Text: SBMO 210800Z 05003KT 8000 FEW010 SCT020 23/22 Q1014
Loading
Personal Weather Stations






























Interactive Weather Map New forecast layout! Learn more

10-Day Weather Forecast

Advertisements
Track Severe Weather on mobile